Gilman, Illinois
Current Conditions -  °F | °C
As of 9:10 AM on Wednesday 26 Nov 2014 (Local Time) from KTIP Reporting Station
Haze Haze  
Wind Chill: 20°   Ceiling: 800
Heat Index: 28°   Visibility: 5mi
Dew Point: 25°   Wind: 8mph
Humidity: 89%   Direction: 110°ESE
Pressure: 30.13"   Gusts: NA
Location:  40.77°N, 87.99°W
Report Text: KTIP 261510Z AUTO 11007KT 5SM BR OVC008 M02/M04 A3013 RMK AO2 T10241040
Loading
Personal Weather Stations






























Interactive Weather Map New forecast layout! Learn more

10-Day Weather Forecast

Advertisements
Track Severe Weather on mobile